sensor_id;sensor_type;location;lat;lon;timestamp;P1;durP1;ratioP1;P2;durP2;ratioP2
56130;SDS011;42000;44.774;20.506;2022-09-28T04:39:55;10.43;;;3.92;;
56130;SDS011;42000;44.774;20.506;2022-09-28T04:42:21;13.52;;;3.80;;
56130;SDS011;42000;44.774;20.506;2022-09-28T04:44:47;7.68;;;3.72;;
56130;SDS011;42000;44.774;20.506;2022-09-28T04:47:13;9.52;;;4.40;;
56130;SDS011;42000;44.774;20.506;2022-09-28T04:49:39;10.98;;;4.25;;
56130;SDS011;42000;44.774;20.506;2022-09-28T04:52:05;10.45;;;4.38;;
56130;SDS011;42000;44.774;20.506;2022-09-28T04:54:32;9.30;;;3.97;;
56130;SDS011;42000;44.774;20.506;2022-09-28T04:56:58;5.78;;;3.88;;
56130;SDS011;42000;44.774;20.506;2022-09-28T04:59:24;11.10;;;4.22;;
56130;SDS011;42000;44.774;20.506;2022-09-28T05:01:50;7.25;;;3.80;;
56130;SDS011;42000;44.774;20.506;2022-09-28T05:04:17;8.13;;;4.47;;
56130;SDS011;42000;44.774;20.506;2022-09-28T05:06:43;7.60;;;4.13;;
56130;SDS011;42000;44.774;20.506;2022-09-28T05:09:09;9.85;;;4.50;;
56130;SDS011;42000;44.774;20.506;2022-09-28T05:11:35;9.70;;;3.85;;
56130;SDS011;42000;44.774;20.506;2022-09-28T05:14:01;9.00;;;5.00;;
56130;SDS011;42000;44.774;20.506;2022-09-28T05:16:27;10.27;;;4.40;;
56130;SDS011;42000;44.774;20.506;2022-09-28T05:18:55;7.05;;;4.10;;
56130;SDS011;42000;44.774;20.506;2022-09-28T05:21:21;6.50;;;4.60;;
56130;SDS011;42000;44.774;20.506;2022-09-28T05:23:49;13.43;;;4.53;;
56130;SDS011;42000;44.774;20.506;2022-09-28T05:26:15;11.73;;;5.10;;
56130;SDS011;42000;44.774;20.506;2022-09-28T05:28:41;10.00;;;4.75;;
56130;SDS011;42000;44.774;20.506;2022-09-28T05:31:08;7.63;;;4.55;;
56130;SDS011;42000;44.774;20.506;2022-09-28T05:33:34;10.27;;;4.53;;
56130;SDS011;42000;44.774;20.506;2022-09-28T05:36:01;7.57;;;4.05;;
56130;SDS011;42000;44.774;20.506;2022-09-28T05:38:28;15.80;;;4.60;;
56130;SDS011;42000;44.774;20.506;2022-09-28T05:40:54;6.47;;;4.13;;
56130;SDS011;42000;44.774;20.506;2022-09-28T05:43:20;6.20;;;3.90;;
56130;SDS011;42000;44.774;20.506;2022-09-28T05:45:46;9.77;;;4.75;;
56130;SDS011;42000;44.774;20.506;2022-09-28T05:48:12;12.45;;;5.55;;
56130;SDS011;42000;44.774;20.506;2022-09-28T05:50:38;12.35;;;5.40;;
56130;SDS011;42000;44.774;20.506;2022-09-28T05:53:05;9.82;;;4.68;;
56130;SDS011;42000;44.774;20.506;2022-09-28T05:55:33;7.05;;;4.57;;
56130;SDS011;42000;44.774;20.506;2022-09-28T05:58:00;6.40;;;4.30;;
56130;SDS011;42000;44.774;20.506;2022-09-28T06:00:26;9.20;;;5.47;;
56130;SDS011;42000;44.774;20.506;2022-09-28T06:02:59;9.35;;;6.07;;
56130;SDS011;42000;44.774;20.506;2022-09-28T06:05:26;9.07;;;4.75;;
56130;SDS011;42000;44.774;20.506;2022-09-28T06:07:55;8.63;;;4.28;;
56130;SDS011;42000;44.774;20.506;2022-09-28T06:10:22;10.25;;;4.88;;
56130;SDS011;42000;44.774;20.506;2022-09-28T06:12:55;8.90;;;4.15;;
56130;SDS011;42000;44.774;20.506;2022-09-28T06:15:21;9.85;;;4.40;;
56130;SDS011;42000;44.774;20.506;2022-09-28T06:17:54;11.00;;;5.40;;
56130;SDS011;42000;44.774;20.506;2022-09-28T06:20:20;11.32;;;5.00;;
56130;SDS011;42000;44.774;20.506;2022-09-28T06:22:49;11.10;;;4.80;;
56130;SDS011;42000;44.774;20.506;2022-09-28T06:25:15;10.10;;;5.10;;
56130;SDS011;42000;44.774;20.506;2022-09-28T06:27:41;13.95;;;5.57;;
56130;SDS011;42000;44.774;20.506;2022-09-28T06:30:07;8.32;;;5.20;;
56130;SDS011;42000;44.774;20.506;2022-09-28T06:32:33;9.60;;;5.60;;
56130;SDS011;42000;44.774;20.506;2022-09-28T06:34:59;8.00;;;5.25;;
56130;SDS011;42000;44.774;20.506;2022-09-28T06:37:25;14.00;;;5.13;;
56130;SDS011;42000;44.774;20.506;2022-09-28T06:39:52;6.35;;;4.10;;
56130;SDS011;42000;44.774;20.506;2022-09-28T06:42:18;7.03;;;3.00;;
56130;SDS011;42000;44.774;20.506;2022-09-28T06:44:44;5.85;;;2.80;;
56130;SDS011;42000;44.774;20.506;2022-09-28T06:47:11;7.32;;;2.50;;
56130;SDS011;42000;44.774;20.506;2022-09-28T06:49:37;6.68;;;2.70;;
56130;SDS011;42000;44.774;20.506;2022-09-28T06:52:03;7.53;;;3.40;;
56130;SDS011;42000;44.774;20.506;2022-09-28T06:54:30;10.05;;;4.53;;
56130;SDS011;42000;44.774;20.506;2022-09-28T06:56:56;12.05;;;5.40;;
56130;SDS011;42000;44.774;20.506;2022-09-28T06:59:22;8.43;;;4.45;;
56130;SDS011;42000;44.774;20.506;2022-09-28T07:01:48;11.07;;;4.88;;
56130;SDS011;42000;44.774;20.506;2022-09-28T07:04:14;9.20;;;4.15;;
56130;SDS011;42000;44.774;20.506;2022-09-28T07:06:44;6.93;;;3.22;;
56130;SDS011;42000;44.774;20.506;2022-09-28T07:09:11;6.25;;;2.85;;
56130;SDS011;42000;44.774;20.506;2022-09-28T07:11:37;7.85;;;3.90;;
56130;SDS011;42000;44.774;20.506;2022-09-28T07:14:04;5.85;;;3.28;;
56130;SDS011;42000;44.774;20.506;2022-09-28T07:16:30;10.05;;;4.15;;
56130;SDS011;42000;44.774;20.506;2022-09-28T07:18:56;6.05;;;3.17;;
56130;SDS011;42000;44.774;20.506;2022-09-28T07:21:22;6.60;;;3.83;;
56130;SDS011;42000;44.774;20.506;2022-09-28T07:23:48;7.88;;;4.10;;
56130;SDS011;42000;44.774;20.506;2022-09-28T07:26:15;8.38;;;4.30;;
56130;SDS011;42000;44.774;20.506;2022-09-28T07:28:43;9.35;;;4.70;;
56130;SDS011;42000;44.774;20.506;2022-09-28T07:31:09;8.93;;;4.32;;
56130;SDS011;42000;44.774;20.506;2022-09-28T07:33:35;8.45;;;4.75;;
56130;SDS011;42000;44.774;20.506;2022-09-28T07:36:02;10.93;;;4.78;;
56130;SDS011;42000;44.774;20.506;2022-09-28T07:38:31;7.18;;;4.40;;
56130;SDS011;42000;44.774;20.506;2022-09-28T07:40:57;9.27;;;5.07;;
56130;SDS011;42000;44.774;20.506;2022-09-28T07:43:35;7.15;;;4.68;;
56130;SDS011;42000;44.774;20.506;2022-09-28T07:46:03;7.88;;;4.78;;
56130;SDS011;42000;44.774;20.506;2022-09-28T07:48:33;9.20;;;5.22;;
56130;SDS011;42000;44.774;20.506;2022-09-28T07:51:00;9.07;;;5.00;;
56130;SDS011;42000;44.774;20.506;2022-09-28T07:53:26;7.05;;;3.78;;
56130;SDS011;42000;44.774;20.506;2022-09-28T07:55:54;9.02;;;4.82;;
56130;SDS011;42000;44.774;20.506;2022-09-28T07:58:20;6.88;;;3.55;;
56130;SDS011;42000;44.774;20.506;2022-09-28T08:00:47;4.30;;;2.83;;
56130;SDS011;42000;44.774;20.506;2022-09-28T08:03:17;7.15;;;2.80;;
56130;SDS011;42000;44.774;20.506;2022-09-28T08:05:43;5.45;;;2.78;;
56130;SDS011;42000;44.774;20.506;2022-09-28T08:08:10;5.32;;;2.92;;
56130;SDS011;42000;44.774;20.506;2022-09-28T08:10:37;9.23;;;3.00;;
56130;SDS011;42000;44.774;20.506;2022-09-28T08:13:03;3.35;;;2.40;;
56130;SDS011;42000;44.774;20.506;2022-09-28T08:15:30;4.70;;;2.42;;
56130;SDS011;42000;44.774;20.506;2022-09-28T08:18:00;6.32;;;2.97;;
56130;SDS011;42000;44.774;20.506;2022-09-28T08:20:26;6.10;;;3.40;;
56130;SDS011;42000;44.774;20.506;2022-09-28T08:23:11;10.05;;;3.33;;
56130;SDS011;42000;44.774;20.506;2022-09-28T08:25:37;6.65;;;3.75;;
56130;SDS011;42000;44.774;20.506;2022-09-28T08:28:03;6.95;;;3.72;;
56130;SDS011;42000;44.774;20.506;2022-09-28T08:30:32;7.15;;;3.50;;
56130;SDS011;42000;44.774;20.506;2022-09-28T08:32:59;9.27;;;4.10;;
56130;SDS011;42000;44.774;20.506;2022-09-28T08:35:25;7.32;;;4.20;;
56130;SDS011;42000;44.774;20.506;2022-09-28T08:37:51;7.35;;;4.45;;
56130;SDS011;42000;44.774;20.506;2022-09-28T08:40:22;8.77;;;4.50;;
56130;SDS011;42000;44.774;20.506;2022-09-28T08:42:49;21.35;;;12.18;;
56130;SDS011;42000;44.774;20.506;2022-09-28T08:45:20;19.13;;;11.40;;
56130;SDS011;42000;44.774;20.506;2022-09-28T08:47:51;14.65;;;6.00;;
56130;SDS011;42000;44.774;20.506;2022-09-28T08:50:40;11.77;;;5.63;;
56130;SDS011;42000;44.774;20.506;2022-09-28T08:55:46;7.18;;;4.20;;
56130;SDS011;42000;44.774;20.506;2022-09-28T08:58:14;5.63;;;3.60;;
56130;SDS011;42000;44.774;20.506;2022-09-28T09:00:44;6.20;;;3.63;;
56130;SDS011;42000;44.774;20.506;2022-09-28T09:03:12;6.22;;;3.90;;
56130;SDS011;42000;44.774;20.506;2022-09-28T09:05:48;13.30;;;7.65;;
56130;SDS011;42000;44.774;20.506;2022-09-28T09:18:42;8.55;;;4.47;;
56130;SDS011;42000;44.774;20.506;2022-09-28T09:24:03;13.93;;;5.30;;
56130;SDS011;42000;44.774;20.506;2022-09-28T09:26:37;9.50;;;4.75;;
56130;SDS011;42000;44.774;20.506;2022-09-28T09:47:51;6.45;;;3.78;;
56130;SDS011;42000;44.774;20.506;2022-09-28T09:53:15;6.72;;;3.70;;
56130;SDS011;42000;44.774;20.506;2022-09-28T09:55:43;6.95;;;3.63;;
56130;SDS011;42000;44.774;20.506;2022-09-28T09:58:11;5.78;;;2.97;;
56130;SDS011;42000;44.774;20.506;2022-09-28T10:00:41;4.28;;;2.05;;
56130;SDS011;42000;44.774;20.506;2022-09-28T10:03:24;3.97;;;1.80;;
56130;SDS011;42000;44.774;20.506;2022-09-28T10:06:02;3.55;;;1.90;;
56130;SDS011;42000;44.774;20.506;2022-09-28T10:08:32;4.72;;;2.08;;
56130;SDS011;42000;44.774;20.506;2022-09-28T10:11:15;6.30;;;2.00;;
56130;SDS011;42000;44.774;20.506;2022-09-28T10:13:42;4.10;;;2.15;;
56130;SDS011;42000;44.774;20.506;2022-09-28T10:16:09;4.57;;;2.28;;
56130;SDS011;42000;44.774;20.506;2022-09-28T10:18:35;4.13;;;2.55;;
56130;SDS011;42000;44.774;20.506;2022-09-28T10:21:01;4.50;;;2.70;;
56130;SDS011;42000;44.774;20.506;2022-09-28T10:23:28;9.13;;;3.30;;
56130;SDS011;42000;44.774;20.506;2022-09-28T10:26:02;6.80;;;3.08;;
56130;SDS011;42000;44.774;20.506;2022-09-28T10:28:33;10.10;;;5.00;;
56130;SDS011;42000;44.774;20.506;2022-09-28T10:31:02;6.80;;;3.63;;
56130;SDS011;42000;44.774;20.506;2022-09-28T10:33:46;8.63;;;4.20;;
56130;SDS011;42000;44.774;20.506;2022-09-28T10:36:12;10.50;;;5.32;;
56130;SDS011;42000;44.774;20.506;2022-09-28T10:38:38;6.30;;;3.67;;
56130;SDS011;42000;44.774;20.506;2022-09-28T10:41:11;7.25;;;4.05;;
56130;SDS011;42000;44.774;20.506;2022-09-28T10:43:38;7.53;;;2.83;;
56130;SDS011;42000;44.774;20.506;2022-09-28T10:46:14;3.38;;;1.98;;
56130;SDS011;42000;44.774;20.506;2022-09-28T10:48:47;3.97;;;2.15;;
56130;SDS011;42000;44.774;20.506;2022-09-28T10:51:14;2.78;;;1.80;;
56130;SDS011;42000;44.774;20.506;2022-09-28T10:53:41;3.67;;;2.20;;
56130;SDS011;42000;44.774;20.506;2022-09-28T10:56:20;5.50;;;2.72;;
56130;SDS011;42000;44.774;20.506;2022-09-28T10:58:46;4.47;;;2.90;;
56130;SDS011;42000;44.774;20.506;2022-09-28T11:01:16;6.40;;;3.40;;
56130;SDS011;42000;44.774;20.506;2022-09-28T11:03:57;5.70;;;3.22;;
56130;SDS011;42000;44.774;20.506;2022-09-28T11:06:25;6.35;;;3.28;;
56130;SDS011;42000;44.774;20.506;2022-09-28T11:08:52;8.20;;;4.40;;
56130;SDS011;42000;44.774;20.506;2022-09-28T11:11:19;8.05;;;4.78;;
56130;SDS011;42000;44.774;20.506;2022-09-28T11:13:47;9.30;;;4.85;;
56130;SDS011;42000;44.774;20.506;2022-09-28T11:16:17;9.73;;;5.00;;
56130;SDS011;42000;44.774;20.506;2022-09-28T11:18:44;11.23;;;4.75;;
56130;SDS011;42000;44.774;20.506;2022-09-28T11:21:15;9.48;;;4.68;;
56130;SDS011;42000;44.774;20.506;2022-09-28T11:23:41;6.75;;;4.75;;
56130;SDS011;42000;44.774;20.506;2022-09-28T11:26:19;8.65;;;5.55;;
56130;SDS011;42000;44.774;20.506;2022-09-28T11:28:49;12.60;;;7.20;;
56130;SDS011;42000;44.774;20.506;2022-09-28T11:31:16;11.15;;;6.95;;
56130;SDS011;42000;44.774;20.506;2022-09-28T11:33:49;11.73;;;6.13;;
56130;SDS011;42000;44.774;20.506;2022-09-28T11:46:46;9.10;;;5.70;;
56130;SDS011;42000;44.774;20.506;2022-09-28T11:51:45;8.52;;;5.40;;
56130;SDS011;42000;44.774;20.506;2022-09-28T11:54:16;11.48;;;5.72;;
56130;SDS011;42000;44.774;20.506;2022-09-28T11:56:46;8.70;;;5.50;;
56130;SDS011;42000;44.774;20.506;2022-09-28T11:59:14;9.55;;;5.28;;
56130;SDS011;42000;44.774;20.506;2022-09-28T12:01:45;7.90;;;4.88;;
56130;SDS011;42000;44.774;20.506;2022-09-28T12:06:46;11.55;;;5.47;;
56130;SDS011;42000;44.774;20.506;2022-09-28T12:09:16;8.95;;;5.55;;
56130;SDS011;42000;44.774;20.506;2022-09-28T12:11:44;9.52;;;5.63;;
56130;SDS011;42000;44.774;20.506;2022-09-28T12:14:19;11.18;;;5.35;;
56130;SDS011;42000;44.774;20.506;2022-09-28T12:19:41;9.25;;;5.22;;
56130;SDS011;42000;44.774;20.506;2022-09-28T12:22:11;8.23;;;4.80;;
56130;SDS011;42000;44.774;20.506;2022-09-28T12:24:41;9.68;;;5.10;;
56130;SDS011;42000;44.774;20.506;2022-09-28T12:29:42;10.32;;;5.25;;
56130;SDS011;42000;44.774;20.506;2022-09-28T12:34:49;7.75;;;4.57;;
56130;SDS011;42000;44.774;20.506;2022-09-28T12:37:40;7.97;;;5.07;;
56130;SDS011;42000;44.774;20.506;2022-09-28T12:48:03;7.85;;;5.35;;
56130;SDS011;42000;44.774;20.506;2022-09-28T12:53:23;8.57;;;5.30;;
56130;SDS011;42000;44.774;20.506;2022-09-28T13:08:54;11.30;;;7.15;;
56130;SDS011;42000;44.774;20.506;2022-09-28T13:24:14;11.70;;;6.82;;
56130;SDS011;42000;44.774;20.506;2022-09-28T13:26:43;13.35;;;7.50;;
56130;SDS011;42000;44.774;20.506;2022-09-28T13:29:15;11.88;;;8.00;;
56130;SDS011;42000;44.774;20.506;2022-09-28T13:31:57;13.00;;;8.27;;
56130;SDS011;42000;44.774;20.506;2022-09-28T13:34:25;11.20;;;7.22;;
56130;SDS011;42000;44.774;20.506;2022-09-28T13:39:37;13.98;;;7.57;;
56130;SDS011;42000;44.774;20.506;2022-09-28T13:42:23;13.68;;;7.82;;
56130;SDS011;42000;44.774;20.506;2022-09-28T13:52:47;14.77;;;7.47;;
56130;SDS011;42000;44.774;20.506;2022-09-28T13:55:30;12.93;;;7.50;;
56130;SDS011;42000;44.774;20.506;2022-09-28T13:58:04;12.50;;;8.02;;
56130;SDS011;42000;44.774;20.506;2022-09-28T14:00:42;15.90;;;8.23;;
56130;SDS011;42000;44.774;20.506;2022-09-28T14:08:31;13.02;;;7.93;;
56130;SDS011;42000;44.774;20.506;2022-09-28T14:16:31;13.38;;;7.90;;
56130;SDS011;42000;44.774;20.506;2022-09-28T14:19:08;12.68;;;7.90;;
56130;SDS011;42000;44.774;20.506;2022-09-28T14:24:22;12.10;;;7.30;;
56130;SDS011;42000;44.774;20.506;2022-09-28T14:29:35;12.52;;;8.15;;
56130;SDS011;42000;44.774;20.506;2022-09-28T14:32:19;13.43;;;8.35;;
56130;SDS011;42000;44.774;20.506;2022-09-28T14:34:46;14.18;;;8.68;;
56130;SDS011;42000;44.774;20.506;2022-09-28T14:37:20;16.90;;;10.10;;
56130;SDS011;42000;44.774;20.506;2022-09-28T14:40:30;16.00;;;9.63;;
56130;SDS011;42000;44.774;20.506;2022-09-28T14:54:27;13.98;;;9.10;;
56130;SDS011;42000;44.774;20.506;2022-09-28T15:01:54;17.88;;;13.43;;
56130;SDS011;42000;44.774;20.506;2022-09-28T15:04:22;22.42;;;16.73;;
56130;SDS011;42000;44.774;20.506;2022-09-28T15:06:50;30.45;;;21.75;;
56130;SDS011;42000;44.774;20.506;2022-09-28T15:09:26;32.85;;;22.35;;
56130;SDS011;42000;44.774;20.506;2022-09-28T15:11:57;31.35;;;22.98;;
56130;SDS011;42000;44.774;20.506;2022-09-28T15:14:23;20.88;;;15.00;;
56130;SDS011;42000;44.774;20.506;2022-09-28T15:16:49;19.15;;;13.88;;
56130;SDS011;42000;44.774;20.506;2022-09-28T15:21:42;14.05;;;10.95;;
56130;SDS011;42000;44.774;20.506;2022-09-28T15:24:31;14.77;;;9.10;;
56130;SDS011;42000;44.774;20.506;2022-09-28T15:27:01;15.35;;;8.40;;
56130;SDS011;42000;44.774;20.506;2022-09-28T15:29:27;13.32;;;9.18;;
56130;SDS011;42000;44.774;20.506;2022-09-28T15:31:57;14.25;;;9.52;;
56130;SDS011;42000;44.774;20.506;2022-09-28T15:34:27;14.85;;;8.30;;
56130;SDS011;42000;44.774;20.506;2022-09-28T15:37:12;15.52;;;8.48;;
56130;SDS011;42000;44.774;20.506;2022-09-28T15:39:39;12.85;;;8.30;;
56130;SDS011;42000;44.774;20.506;2022-09-28T15:42:05;12.70;;;7.97;;
56130;SDS011;42000;44.774;20.506;2022-09-28T15:44:35;14.20;;;8.20;;
56130;SDS011;42000;44.774;20.506;2022-09-28T15:49:42;14.80;;;8.48;;
56130;SDS011;42000;44.774;20.506;2022-09-28T15:54:40;15.65;;;8.88;;
56130;SDS011;42000;44.774;20.506;2022-09-28T15:57:09;13.43;;;8.90;;
56130;SDS011;42000;44.774;20.506;2022-09-28T15:59:52;17.02;;;10.00;;
56130;SDS011;42000;44.774;20.506;2022-09-28T16:02:20;17.23;;;9.95;;
56130;SDS011;42000;44.774;20.506;2022-09-28T16:04:54;16.10;;;10.32;;
56130;SDS011;42000;44.774;20.506;2022-09-28T16:07:53;16.63;;;10.63;;
56130;SDS011;42000;44.774;20.506;2022-09-28T16:15:05;17.67;;;10.60;;
56130;SDS011;42000;44.774;20.506;2022-09-28T16:17:32;16.50;;;11.18;;
56130;SDS011;42000;44.774;20.506;2022-09-28T16:23:07;18.15;;;11.32;;
56130;SDS011;42000;44.774;20.506;2022-09-28T16:25:34;17.60;;;11.10;;
56130;SDS011;42000;44.774;20.506;2022-09-28T16:28:03;16.17;;;10.85;;
56130;SDS011;42000;44.774;20.506;2022-09-28T16:30:30;18.27;;;11.35;;
56130;SDS011;42000;44.774;20.506;2022-09-28T16:32:57;17.13;;;11.70;;
56130;SDS011;42000;44.774;20.506;2022-09-28T16:38:01;19.70;;;12.52;;
56130;SDS011;42000;44.774;20.506;2022-09-28T16:40:28;20.00;;;12.63;;
56130;SDS011;42000;44.774;20.506;2022-09-28T16:42:58;20.42;;;13.05;;
56130;SDS011;42000;44.774;20.506;2022-09-28T16:45:27;15.70;;;12.10;;
56130;SDS011;42000;44.774;20.506;2022-09-28T16:47:54;16.27;;;11.82;;
56130;SDS011;42000;44.774;20.506;2022-09-28T16:50:20;21.30;;;12.07;;
56130;SDS011;42000;44.774;20.506;2022-09-28T16:52:51;17.25;;;11.55;;
56130;SDS011;42000;44.774;20.506;2022-09-28T16:55:40;16.38;;;12.07;;
56130;SDS011;42000;44.774;20.506;2022-09-28T16:58:06;18.27;;;12.85;;
56130;SDS011;42000;44.774;20.506;2022-09-28T17:00:32;17.48;;;12.05;;
56130;SDS011;42000;44.774;20.506;2022-09-28T17:02:58;19.20;;;12.52;;
56130;SDS011;42000;44.774;20.506;2022-09-28T17:05:24;18.60;;;12.15;;
56130;SDS011;42000;44.774;20.506;2022-09-28T17:08:00;19.08;;;12.57;;
56130;SDS011;42000;44.774;20.506;2022-09-28T17:10:33;18.88;;;12.68;;
56130;SDS011;42000;44.774;20.506;2022-09-28T17:13:00;32.75;;;16.13;;
56130;SDS011;42000;44.774;20.506;2022-09-28T17:15:26;24.33;;;15.65;;
56130;SDS011;42000;44.774;20.506;2022-09-28T17:17:52;24.83;;;16.45;;
56130;SDS011;42000;44.774;20.506;2022-09-28T17:20:20;25.80;;;15.45;;
56130;SDS011;42000;44.774;20.506;2022-09-28T17:22:48;26.42;;;15.52;;
56130;SDS011;42000;44.774;20.506;2022-09-28T17:25:14;22.52;;;14.98;;
56130;SDS011;42000;44.774;20.506;2022-09-28T17:27:41;22.38;;;14.45;;
56130;SDS011;42000;44.774;20.506;2022-09-28T17:30:09;21.65;;;14.65;;
56130;SDS011;42000;44.774;20.506;2022-09-28T17:32:36;21.40;;;14.98;;
56130;SDS011;42000;44.774;20.506;2022-09-28T17:35:03;19.20;;;14.00;;
56130;SDS011;42000;44.774;20.506;2022-09-28T17:37:29;23.73;;;14.23;;
56130;SDS011;42000;44.774;20.506;2022-09-28T17:39:58;19.15;;;13.70;;
56130;SDS011;42000;44.774;20.506;2022-09-28T17:42:24;20.27;;;14.02;;
56130;SDS011;42000;44.774;20.506;2022-09-28T17:44:50;18.70;;;13.90;;
56130;SDS011;42000;44.774;20.506;2022-09-28T17:47:16;17.92;;;13.65;;
56130;SDS011;42000;44.774;20.506;2022-09-28T17:49:42;20.27;;;14.30;;
56130;SDS011;42000;44.774;20.506;2022-09-28T17:52:09;21.45;;;13.98;;
56130;SDS011;42000;44.774;20.506;2022-09-28T17:54:35;18.42;;;13.38;;
56130;SDS011;42000;44.774;20.506;2022-09-28T17:57:01;18.80;;;14.35;;
56130;SDS011;42000;44.774;20.506;2022-09-28T17:59:27;22.02;;;14.30;;
56130;SDS011;42000;44.774;20.506;2022-09-28T18:01:53;18.20;;;13.32;;
56130;SDS011;42000;44.774;20.506;2022-09-28T18:04:19;20.10;;;13.50;;
56130;SDS011;42000;44.774;20.506;2022-09-28T18:06:45;18.33;;;13.60;;
56130;SDS011;42000;44.774;20.506;2022-09-28T18:09:13;19.00;;;14.77;;
56130;SDS011;42000;44.774;20.506;2022-09-28T18:11:39;21.13;;;14.27;;
56130;SDS011;42000;44.774;20.506;2022-09-28T18:14:08;20.95;;;15.13;;
56130;SDS011;42000;44.774;20.506;2022-09-28T18:16:34;21.05;;;14.52;;
56130;SDS011;42000;44.774;20.506;2022-09-28T18:19:00;21.70;;;15.85;;
56130;SDS011;42000;44.774;20.506;2022-09-28T18:21:26;24.92;;;15.82;;
56130;SDS011;42000;44.774;20.506;2022-09-28T18:23:52;21.10;;;15.77;;
56130;SDS011;42000;44.774;20.506;2022-09-28T18:26:18;21.58;;;15.52;;
56130;SDS011;42000;44.774;20.506;2022-09-28T18:28:44;28.00;;;16.08;;
56130;SDS011;42000;44.774;20.506;2022-09-28T18:31:11;22.58;;;15.73;;
56130;SDS011;42000;44.774;20.506;2022-09-28T18:33:38;20.40;;;15.32;;
56130;SDS011;42000;44.774;20.506;2022-09-28T18:36:04;20.77;;;15.15;;
56130;SDS011;42000;44.774;20.506;2022-09-28T18:38:33;21.95;;;15.60;;
56130;SDS011;42000;44.774;20.506;2022-09-28T18:41:09;24.45;;;15.65;;
56130;SDS011;42000;44.774;20.506;2022-09-28T18:43:38;20.95;;;14.45;;
56130;SDS011;42000;44.774;20.506;2022-09-28T18:46:07;20.52;;;14.52;;
56130;SDS011;42000;44.774;20.506;2022-09-28T18:48:34;18.92;;;14.32;;
56130;SDS011;42000;44.774;20.506;2022-09-28T18:51:00;21.33;;;14.60;;
56130;SDS011;42000;44.774;20.506;2022-09-28T18:53:26;21.70;;;14.32;;
56130;SDS011;42000;44.774;20.506;2022-09-28T18:55:53;21.40;;;14.40;;
56130;SDS011;42000;44.774;20.506;2022-09-28T18:58:20;20.95;;;14.60;;
56130;SDS011;42000;44.774;20.506;2022-09-28T19:00:47;18.20;;;13.93;;
56130;SDS011;42000;44.774;20.506;2022-09-28T19:03:13;20.98;;;14.25;;
56130;SDS011;42000;44.774;20.506;2022-09-28T19:05:42;22.67;;;16.08;;
56130;SDS011;42000;44.774;20.506;2022-09-28T19:08:09;20.95;;;14.57;;
56130;SDS011;42000;44.774;20.506;2022-09-28T19:10:35;25.20;;;16.67;;
56130;SDS011;42000;44.774;20.506;2022-09-28T19:13:01;34.53;;;20.83;;
56130;SDS011;42000;44.774;20.506;2022-09-28T19:15:27;35.95;;;19.98;;
56130;SDS011;42000;44.774;20.506;2022-09-28T19:17:53;34.28;;;21.13;;
56130;SDS011;42000;44.774;20.506;2022-09-28T19:20:19;29.35;;;18.35;;
56130;SDS011;42000;44.774;20.506;2022-09-28T19:22:47;23.98;;;16.63;;
56130;SDS011;42000;44.774;20.506;2022-09-28T19:25:14;23.98;;;15.90;;
56130;SDS011;42000;44.774;20.506;2022-09-28T19:27:40;24.73;;;15.13;;
56130;SDS011;42000;44.774;20.506;2022-09-28T19:30:06;18.58;;;14.25;;
56130;SDS011;42000;44.774;20.506;2022-09-28T19:32:32;21.00;;;14.68;;
56130;SDS011;42000;44.774;20.506;2022-09-28T19:34:58;18.60;;;13.43;;
56130;SDS011;42000;44.774;20.506;2022-09-28T19:37:25;21.27;;;14.70;;
56130;SDS011;42000;44.774;20.506;2022-09-28T19:39:51;21.45;;;14.05;;
56130;SDS011;42000;44.774;20.506;2022-09-28T19:42:17;21.98;;;14.23;;
56130;SDS011;42000;44.774;20.506;2022-09-28T19:44:43;20.77;;;14.32;;
56130;SDS011;42000;44.774;20.506;2022-09-28T19:47:10;20.58;;;13.95;;
56130;SDS011;42000;44.774;20.506;2022-09-28T19:49:37;22.38;;;13.57;;
56130;SDS011;42000;44.774;20.506;2022-09-28T19:52:05;18.40;;;14.07;;
56130;SDS011;42000;44.774;20.506;2022-09-28T19:54:33;20.80;;;14.05;;
56130;SDS011;42000;44.774;20.506;2022-09-28T19:57:00;17.95;;;12.45;;
56130;SDS011;42000;44.774;20.506;2022-09-28T19:59:31;20.47;;;12.90;;
56130;SDS011;42000;44.774;20.506;2022-09-28T20:01:57;20.75;;;12.32;;
56130;SDS011;42000;44.774;20.506;2022-09-28T20:04:25;16.13;;;11.98;;
56130;SDS011;42000;44.774;20.506;2022-09-28T20:06:51;21.83;;;12.70;;
56130;SDS011;42000;44.774;20.506;2022-09-28T20:09:17;18.08;;;12.05;;
56130;SDS011;42000;44.774;20.506;2022-09-28T20:11:43;17.65;;;11.00;;
56130;SDS011;42000;44.774;20.506;2022-09-28T20:14:11;17.80;;;11.63;;
56130;SDS011;42000;44.774;20.506;2022-09-28T20:16:42;18.17;;;11.10;;
56130;SDS011;42000;44.774;20.506;2022-09-28T20:19:08;21.00;;;12.98;;
56130;SDS011;42000;44.774;20.506;2022-09-28T20:21:34;20.08;;;13.13;;
56130;SDS011;42000;44.774;20.506;2022-09-28T20:24:00;20.42;;;14.65;;
56130;SDS011;42000;44.774;20.506;2022-09-28T20:26:27;24.17;;;15.02;;
56130;SDS011;42000;44.774;20.506;2022-09-28T20:28:53;20.15;;;13.60;;
56130;SDS011;42000;44.774;20.506;2022-09-28T20:31:20;21.27;;;14.10;;
56130;SDS011;42000;44.774;20.506;2022-09-28T20:33:47;19.13;;;12.18;;
56130;SDS011;42000;44.774;20.506;2022-09-28T20:36:14;15.30;;;9.90;;
56130;SDS011;42000;44.774;20.506;2022-09-28T20:38:41;18.70;;;9.90;;
56130;SDS011;42000;44.774;20.506;2022-09-28T20:41:08;16.42;;;9.55;;
56130;SDS011;42000;44.774;20.506;2022-09-28T20:43:49;13.73;;;8.05;;
56130;SDS011;42000;44.774;20.506;2022-09-28T20:55:25;16.73;;;6.70;;
56130;SDS011;42000;44.774;20.506;2022-09-28T20:58:00;10.73;;;6.05;;
56130;SDS011;42000;44.774;20.506;2022-09-28T21:00:27;12.93;;;5.80;;
56130;SDS011;42000;44.774;20.506;2022-09-28T21:02:53;9.80;;;5.35;;
56130;SDS011;42000;44.774;20.506;2022-09-28T21:05:19;9.02;;;5.03;;
56130;SDS011;42000;44.774;20.506;2022-09-28T21:08:03;8.73;;;4.88;;
56130;SDS011;42000;44.774;20.506;2022-09-28T21:10:49;13.45;;;5.20;;
56130;SDS011;42000;44.774;20.506;2022-09-28T21:13:16;12.90;;;4.50;;
56130;SDS011;42000;44.774;20.506;2022-09-28T21:15:42;11.18;;;4.72;;
56130;SDS011;42000;44.774;20.506;2022-09-28T21:18:08;9.98;;;4.18;;
56130;SDS011;42000;44.774;20.506;2022-09-28T21:20:34;11.38;;;4.20;;
56130;SDS011;42000;44.774;20.506;2022-09-28T21:23:00;10.25;;;4.75;;
56130;SDS011;42000;44.774;20.506;2022-09-28T21:25:26;10.45;;;4.05;;
56130;SDS011;42000;44.774;20.506;2022-09-28T21:27:53;10.38;;;4.05;;
56130;SDS011;42000;44.774;20.506;2022-09-28T21:30:19;8.20;;;3.92;;
56130;SDS011;42000;44.774;20.506;2022-09-28T21:32:45;12.13;;;3.88;;
56130;SDS011;42000;44.774;20.506;2022-09-28T21:35:14;6.20;;;3.35;;
56130;SDS011;42000;44.774;20.506;2022-09-28T21:37:40;8.18;;;3.42;;
56130;SDS011;42000;44.774;20.506;2022-09-28T21:40:06;9.45;;;3.47;;
56130;SDS011;42000;44.774;20.506;2022-09-28T21:42:33;11.27;;;3.85;;
56130;SDS011;42000;44.774;20.506;2022-09-28T21:44:59;9.27;;;3.88;;
56130;SDS011;42000;44.774;20.506;2022-09-28T21:47:25;9.73;;;3.30;;
56130;SDS011;42000;44.774;20.506;2022-09-28T21:49:51;11.55;;;3.50;;
56130;SDS011;42000;44.774;20.506;2022-09-28T21:52:17;9.60;;;3.88;;
56130;SDS011;42000;44.774;20.506;2022-09-28T21:54:43;9.85;;;3.60;;
56130;SDS011;42000;44.774;20.506;2022-09-28T21:57:10;9.65;;;3.50;;
56130;SDS011;42000;44.774;20.506;2022-09-28T21:59:36;13.30;;;4.10;;